首页
METAR-TAF:

METAR-TAF

机场 :

Joliet Regional Airport

喬利埃特, 伊利诺伊州, 美国

纬度: 41-31-05N, 经度: 088-10-31W, 海拔: 177米

当前天气观测

该预报发布于17分钟前的07:35 UTC
风速13节,风向西转西北,有时为19节阵风
温度 -6°C
湿度 79%
气压 1013 hPa
能見度: 16.1公里
阴天层高于1600英尺
小雪

METAR: KJOT 100735Z AUTO 29013G19KT 10SM -SN OVC016 M06/M09 A2992 RMK AO2 T10561088

时间: 01:52 (07:52 UTC)


TAF: 丢失

超过4000个机场的气象观测和天气预报(METAR&TAF报告)。

可查询的气象台以黄色和红色小点在地图上表示。

将鼠标移到小点上方,可查看气象台名称。

然后点击查看天气观测和预报。

如需切换地图:点击带黑十字的绿色按钮放大地图;点击带横线的绿色按钮缩小地图;或者点击绿色箭头查看邻近地区的地图。


METAR-TAF: